ITY165 LIRF-LIRQ
Flight info
| Callsign | ITY165 |
|---|---|
| Flight time | 0h 31m |
| Altitude | 24000 |
| Route | SOVAN DCT AMTEL/N0347F180 L995 IBRID |
| Aircraft | A319/M-SDE3FGHIRWY/LB1 |
Departure
| Time | 2026-05-07 14:07 |
|---|---|
| Airport | Rome–Fiumicino Leonardo da Vinci International Airport (LIRF) |
Arrival
| Time | 2026-05-07 14:39 |
|---|---|
| Airport | Florence Airport, Peretola (LIRQ) |
| Time | Latitude | Longitude | Altitude | Speed | Heading |
|---|---|---|---|---|---|
| 2026-05-07 13:55 | 41.79656 | 12.25965 | 18 ft | 0 kts | 292° |
| 2026-05-07 13:56 | 41.79619 | 12.25941 | 17 ft | 0 kts | 295° |
| 2026-05-07 13:59 | 41.79619 | 12.25942 | 17 ft | 0 kts | 295° |
| 2026-05-07 14:00 | 41.79613 | 12.25957 | 16 ft | 3 kts | 300° |
| 2026-05-07 14:00 | 41.79602 | 12.25978 | 18 ft | 3 kts | 319° |
| 2026-05-07 14:00 | 41.79586 | 12.25992 | 16 ft | 3 kts | 352° |
| 2026-05-07 14:00 | 41.79573 | 12.25992 | 18 ft | 1 kts | 20° |
| 2026-05-07 14:01 | 41.79573 | 12.25991 | 18 ft | 0 kts | 20° |
| 2026-05-07 14:02 | 41.79574 | 12.25992 | 18 ft | 1 kts | 20° |
| 2026-05-07 14:02 | 41.79602 | 12.26006 | 16 ft | 8 kts | 20° |
| 2026-05-07 14:03 | 41.79676 | 12.26044 | 16 ft | 14 kts | 23° |
| 2026-05-07 14:03 | 41.79764 | 12.26118 | 17 ft | 15 kts | 38° |
| 2026-05-07 14:03 | 41.79859 | 12.26188 | 18 ft | 17 kts | 25° |
| 2026-05-07 14:03 | 41.79966 | 12.26254 | 20 ft | 17 kts | 25° |
| 2026-05-07 14:04 | 41.80079 | 12.26323 | 19 ft | 18 kts | 25° |
| 2026-05-07 14:04 | 41.80196 | 12.26397 | 18 ft | 19 kts | 25° |
| 2026-05-07 14:04 | 41.80323 | 12.26382 | 14 ft | 17 kts | 340° |
| 2026-05-07 14:04 | 41.80406 | 12.26336 | 14 ft | 13 kts | 288° |
| 2026-05-07 14:05 | 41.80378 | 12.26225 | 15 ft | 13 kts | 248° |
| 2026-05-07 14:05 | 41.80424 | 12.26165 | 15 ft | 13 kts | 19° |
| 2026-05-07 14:05 | 41.80518 | 12.26168 | 14 ft | 14 kts | 342° |
| 2026-05-07 14:05 | 41.80607 | 12.26129 | 17 ft | 13 kts | 342° |
| 2026-05-07 14:06 | 41.80684 | 12.26095 | 21 ft | 11 kts | 342° |
| 2026-05-07 14:06 | 41.80719 | 12.26059 | 19 ft | 9 kts | 278° |
| 2026-05-07 14:06 | 41.80666 | 12.25872 | 17 ft | 44 kts | 249° |
| 2026-05-07 14:06 | 41.80470 | 12.25162 | 16 ft | 115 kts | 250° |
| 2026-05-07 14:07 | 41.80129 | 12.23924 | 140 ft | 155 kts | 251° |
| 2026-05-07 14:07 | 41.79756 | 12.22568 | 793 ft | 156 kts | 251° |
| 2026-05-07 14:07 | 41.79380 | 12.21200 | 1449 ft | 158 kts | 251° |
| 2026-05-07 14:07 | 41.79264 | 12.19695 | 1904 ft | 173 kts | 277° |
| 2026-05-07 14:08 | 41.79489 | 12.18625 | 2231 ft | 188 kts | 296° |
| 2026-05-07 14:08 | 41.80295 | 12.17118 | 2598 ft | 210 kts | 310° |
| 2026-05-07 14:08 | 41.81218 | 12.15580 | 3377 ft | 213 kts | 310° |
| 2026-05-07 14:08 | 41.82446 | 12.13519 | 4484 ft | 215 kts | 309° |
| 2026-05-07 14:09 | 41.83378 | 12.11945 | 5310 ft | 217 kts | 308° |
| 2026-05-07 14:09 | 41.84170 | 12.10224 | 6111 ft | 219 kts | 291° |
| 2026-05-07 14:09 | 41.84529 | 12.08166 | 6611 ft | 239 kts | 275° |
| 2026-05-07 14:09 | 41.84718 | 12.05842 | 7020 ft | 263 kts | 276° |
| 2026-05-07 14:10 | 41.84989 | 12.04228 | 7414 ft | 273 kts | 290° |
| 2026-05-07 14:10 | 41.86066 | 12.02100 | 8228 ft | 283 kts | 317° |
| 2026-05-07 14:10 | 41.88481 | 12.00693 | 9415 ft | 293 kts | 355° |
| 2026-05-07 14:10 | 41.90507 | 12.00821 | 10289 ft | 298 kts | 3° |
| 2026-05-07 14:11 | 41.92651 | 12.01061 | 10671 ft | 321 kts | 3° |
| 2026-05-07 14:11 | 41.94932 | 12.01323 | 11184 ft | 335 kts | 3° |
| 2026-05-07 14:11 | 41.96513 | 12.01507 | 11674 ft | 340 kts | 3° |
| 2026-05-07 14:11 | 41.98855 | 12.01778 | 12435 ft | 345 kts | 2° |
| 2026-05-07 14:12 | 42.01261 | 12.02052 | 13218 ft | 349 kts | 2° |
| 2026-05-07 14:12 | 42.03699 | 12.02327 | 13973 ft | 354 kts | 2° |
| 2026-05-07 14:12 | 42.06170 | 12.02599 | 14643 ft | 358 kts | 1° |
| 2026-05-07 14:12 | 42.08671 | 12.02870 | 15327 ft | 362 kts | 1° |
| 2026-05-07 14:13 | 42.11198 | 12.03141 | 16012 ft | 366 kts | 1° |
| 2026-05-07 14:13 | 42.13746 | 12.03414 | 16677 ft | 370 kts | 1° |
| 2026-05-07 14:13 | 42.16326 | 12.03692 | 17357 ft | 373 kts | 1° |
| 2026-05-07 14:13 | 42.18920 | 12.03723 | 17989 ft | 373 kts | 351° |
| 2026-05-07 14:14 | 42.21492 | 12.03204 | 18617 ft | 375 kts | 346° |
| 2026-05-07 14:14 | 42.24038 | 12.02623 | 19214 ft | 378 kts | 346° |
| 2026-05-07 14:14 | 42.26645 | 12.02034 | 19812 ft | 382 kts | 346° |
| 2026-05-07 14:14 | 42.29276 | 12.01444 | 20395 ft | 385 kts | 346° |
| 2026-05-07 14:15 | 42.31932 | 12.00849 | 20988 ft | 388 kts | 345° |
| 2026-05-07 14:15 | 42.34612 | 12.00251 | 21575 ft | 392 kts | 345° |
| 2026-05-07 14:15 | 42.37312 | 11.99642 | 22151 ft | 395 kts | 345° |
| 2026-05-07 14:15 | 42.40035 | 11.99028 | 22756 ft | 399 kts | 345° |
| 2026-05-07 14:16 | 42.42786 | 11.98406 | 23314 ft | 402 kts | 345° |
| 2026-05-07 14:16 | 42.45557 | 11.97776 | 23811 ft | 406 kts | 344° |
| 2026-05-07 14:16 | 42.48310 | 11.97150 | 23978 ft | 407 kts | 344° |
| 2026-05-07 14:16 | 42.51074 | 11.96533 | 24021 ft | 395 kts | 344° |
| 2026-05-07 14:17 | 42.53735 | 11.95947 | 24021 ft | 383 kts | 344° |
| 2026-05-07 14:17 | 42.56347 | 11.95368 | 24021 ft | 379 kts | 344° |
| 2026-05-07 14:17 | 42.58946 | 11.94781 | 24015 ft | 378 kts | 343° |
| 2026-05-07 14:17 | 42.61542 | 11.94187 | 24029 ft | 378 kts | 343° |
| 2026-05-07 14:18 | 42.64141 | 11.93585 | 24011 ft | 379 kts | 343° |
| 2026-05-07 14:18 | 42.66739 | 11.92985 | 24008 ft | 379 kts | 343° |
| 2026-05-07 14:18 | 42.69336 | 11.92388 | 24004 ft | 379 kts | 343° |
| 2026-05-07 14:18 | 42.71903 | 11.91803 | 24001 ft | 379 kts | 343° |
| 2026-05-07 14:19 | 42.74501 | 11.91212 | 23997 ft | 379 kts | 343° |
| 2026-05-07 14:19 | 42.77101 | 11.90620 | 23995 ft | 379 kts | 343° |
| 2026-05-07 14:19 | 42.79706 | 11.90027 | 23997 ft | 379 kts | 343° |
| 2026-05-07 14:19 | 42.82295 | 11.89373 | 24015 ft | 375 kts | 338° |
| 2026-05-07 14:20 | 42.84718 | 11.88240 | 23841 ft | 361 kts | 328° |
| 2026-05-07 14:20 | 42.86914 | 11.86692 | 23613 ft | 353 kts | 324° |
| 2026-05-07 14:20 | 42.89075 | 11.85109 | 23346 ft | 351 kts | 324° |
| 2026-05-07 14:20 | 42.91193 | 11.83551 | 23078 ft | 350 kts | 324° |
| 2026-05-07 14:21 | 42.93333 | 11.81981 | 22807 ft | 349 kts | 324° |
| 2026-05-07 14:21 | 42.95466 | 11.80418 | 22535 ft | 347 kts | 324° |
| 2026-05-07 14:21 | 42.97592 | 11.78863 | 22266 ft | 346 kts | 324° |
| 2026-05-07 14:21 | 42.99706 | 11.77314 | 22009 ft | 344 kts | 324° |
| 2026-05-07 14:22 | 43.02490 | 11.75269 | 21661 ft | 342 kts | 325° |
| 2026-05-07 14:22 | 43.03906 | 11.74229 | 21505 ft | 341 kts | 325° |
| 2026-05-07 14:22 | 43.05976 | 11.72711 | 21210 ft | 335 kts | 325° |
| 2026-05-07 14:22 | 43.07995 | 11.71231 | 20830 ft | 332 kts | 325° |
| 2026-05-07 14:23 | 43.10025 | 11.69739 | 20454 ft | 330 kts | 325° |
| 2026-05-07 14:23 | 43.12042 | 11.68250 | 20078 ft | 328 kts | 325° |
| 2026-05-07 14:23 | 43.14043 | 11.66769 | 19705 ft | 326 kts | 326° |
| 2026-05-07 14:23 | 43.16037 | 11.65291 | 19326 ft | 325 kts | 326° |
| 2026-05-07 14:24 | 43.18024 | 11.63819 | 18951 ft | 324 kts | 326° |
| 2026-05-07 14:24 | 43.20004 | 11.62358 | 18582 ft | 323 kts | 327° |
| 2026-05-07 14:24 | 43.21977 | 11.60901 | 18207 ft | 322 kts | 327° |
| 2026-05-07 14:24 | 43.23945 | 11.59446 | 17792 ft | 321 kts | 327° |
| 2026-05-07 14:25 | 43.25902 | 11.57997 | 17415 ft | 319 kts | 327° |
| 2026-05-07 14:25 | 43.27192 | 11.57044 | 17169 ft | 318 kts | 328° |
| 2026-05-07 14:25 | 43.29761 | 11.55145 | 16683 ft | 316 kts | 328° |
| 2026-05-07 14:25 | 43.31693 | 11.53717 | 16317 ft | 315 kts | 328° |
| 2026-05-07 14:26 | 43.33616 | 11.52293 | 15955 ft | 314 kts | 328° |
| 2026-05-07 14:26 | 43.35533 | 11.50869 | 15602 ft | 313 kts | 328° |
| 2026-05-07 14:26 | 43.37445 | 11.49451 | 15246 ft | 312 kts | 328° |
| 2026-05-07 14:26 | 43.39352 | 11.48037 | 14885 ft | 311 kts | 329° |
| 2026-05-07 14:27 | 43.41256 | 11.46622 | 14543 ft | 311 kts | 329° |
| 2026-05-07 14:27 | 43.43156 | 11.45208 | 14242 ft | 308 kts | 329° |
| 2026-05-07 14:27 | 43.44980 | 11.43822 | 14116 ft | 299 kts | 325° |
| 2026-05-07 14:27 | 43.46501 | 11.41982 | 14013 ft | 286 kts | 306° |
| 2026-05-07 14:28 | 43.47484 | 11.39673 | 13860 ft | 276 kts | 289° |
| 2026-05-07 14:28 | 43.47910 | 11.37098 | 13456 ft | 276 kts | 272° |
| 2026-05-07 14:28 | 43.47962 | 11.34481 | 13150 ft | 272 kts | 270° |
| 2026-05-07 14:28 | 43.48021 | 11.31888 | 12710 ft | 271 kts | 271° |
| 2026-05-07 14:29 | 43.48086 | 11.29303 | 12287 ft | 270 kts | 271° |
| 2026-05-07 14:29 | 43.48152 | 11.26727 | 11850 ft | 269 kts | 271° |
| 2026-05-07 14:29 | 43.48218 | 11.24153 | 11448 ft | 267 kts | 271° |
| 2026-05-07 14:29 | 43.48280 | 11.21627 | 11010 ft | 267 kts | 271° |
| 2026-05-07 14:30 | 43.48340 | 11.19086 | 10596 ft | 266 kts | 271° |
| 2026-05-07 14:30 | 43.48399 | 11.16559 | 10219 ft | 263 kts | 271° |
| 2026-05-07 14:30 | 43.48477 | 11.14055 | 9825 ft | 261 kts | 276° |
| 2026-05-07 14:30 | 43.48946 | 11.11640 | 9429 ft | 263 kts | 292° |
| 2026-05-07 14:31 | 43.49907 | 11.09512 | 9075 ft | 262 kts | 306° |
| 2026-05-07 14:31 | 43.51003 | 11.07502 | 8686 ft | 261 kts | 305° |
| 2026-05-07 14:31 | 43.52092 | 11.05494 | 8272 ft | 262 kts | 305° |
| 2026-05-07 14:31 | 43.53157 | 11.03516 | 7917 ft | 261 kts | 304° |
| 2026-05-07 14:32 | 43.54221 | 11.01529 | 7531 ft | 256 kts | 305° |
| 2026-05-07 14:32 | 43.55272 | 10.99563 | 7114 ft | 253 kts | 305° |
| 2026-05-07 14:32 | 43.56313 | 10.97617 | 6729 ft | 251 kts | 305° |
| 2026-05-07 14:32 | 43.57343 | 10.95691 | 6352 ft | 248 kts | 304° |
| 2026-05-07 14:33 | 43.58361 | 10.93788 | 6020 ft | 242 kts | 305° |
| 2026-05-07 14:33 | 43.59549 | 10.92277 | 5957 ft | 229 kts | 331° |
| 2026-05-07 14:33 | 43.61075 | 10.91782 | 5863 ft | 228 kts | 2° |
| 2026-05-07 14:33 | 43.62595 | 10.92395 | 5307 ft | 240 kts | 33° |
| 2026-05-07 14:34 | 43.63816 | 10.94038 | 4727 ft | 250 kts | 50° |
| 2026-05-07 14:34 | 43.64940 | 10.95795 | 4610 ft | 240 kts | 49° |
| 2026-05-07 14:34 | 43.66044 | 10.97495 | 4337 ft | 236 kts | 48° |
| 2026-05-07 14:34 | 43.67143 | 10.99177 | 4033 ft | 236 kts | 48° |
| 2026-05-07 14:35 | 43.68241 | 11.00860 | 3727 ft | 236 kts | 47° |
| 2026-05-07 14:35 | 43.69337 | 11.02543 | 3417 ft | 235 kts | 47° |
| 2026-05-07 14:35 | 43.70428 | 11.04217 | 3106 ft | 233 kts | 47° |
| 2026-05-07 14:35 | 43.71501 | 11.05866 | 2794 ft | 226 kts | 47° |
| 2026-05-07 14:36 | 43.72530 | 11.07449 | 2501 ft | 217 kts | 47° |
| 2026-05-07 14:36 | 43.73518 | 11.08967 | 2252 ft | 206 kts | 47° |
| 2026-05-07 14:36 | 43.74444 | 11.10392 | 1954 ft | 198 kts | 46° |
| 2026-05-07 14:36 | 43.75346 | 11.11780 | 1693 ft | 190 kts | 46° |
| 2026-05-07 14:37 | 43.76219 | 11.13126 | 1439 ft | 185 kts | 46° |
| 2026-05-07 14:37 | 43.77826 | 11.15601 | 975 ft | 158 kts | 47° |
| 2026-05-07 14:37 | 43.78532 | 11.16692 | 786 ft | 149 kts | 47° |
| 2026-05-07 14:38 | 43.79212 | 11.17737 | 558 ft | 143 kts | 48° |
| 2026-05-07 14:38 | 43.79875 | 11.18767 | 365 ft | 144 kts | 49° |
| 2026-05-07 14:38 | 43.80541 | 11.19794 | 145 ft | 143 kts | 46° |
| 2026-05-07 14:38 | 43.81097 | 11.20652 | 137 ft | 83 kts | 49° |
| 2026-05-07 14:39 | 43.81377 | 11.21082 | 147 ft | 43 kts | 48° |
| 2026-05-07 14:39 | 43.81476 | 11.21272 | 148 ft | 13 kts | 74° |
| 2026-05-07 14:39 | 43.81492 | 11.21269 | 147 ft | 7 kts | 251° |
| 2026-05-07 14:39 | 43.81426 | 11.21160 | 148 ft | 23 kts | 228° |
| 2026-05-07 14:40 | 43.81279 | 11.20933 | 146 ft | 37 kts | 228° |
| 2026-05-07 14:40 | 43.81104 | 11.20664 | 137 ft | 38 kts | 228° |
| 2026-05-07 14:40 | 43.80926 | 11.20390 | 134 ft | 38 kts | 228° |
| 2026-05-07 14:40 | 43.80771 | 11.20149 | 135 ft | 24 kts | 229° |
| 2026-05-07 14:41 | 43.80662 | 11.20029 | 132 ft | 18 kts | 195° |
| 2026-05-07 14:41 | 43.80538 | 11.19986 | 132 ft | 18 kts | 193° |
| 2026-05-07 14:41 | 43.80446 | 11.19962 | 129 ft | 9 kts | 166° |
| 2026-05-07 14:41 | 43.80385 | 11.19988 | 127 ft | 9 kts | 140° |
| 2026-05-07 14:42 | 43.80381 | 11.20044 | 132 ft | 3 kts | 85° |
| 2026-05-07 14:45 | 43.80381 | 11.20039 | 132 ft | 0 kts | 267° |
| 2026-05-07 14:47 | 43.80381 | 11.20034 | 132 ft | 0 kts | 267° |